createdAt,value
2023-04-27T00:00:02.807Z,1259.00
2023-04-27T00:01:02.802Z,1253.00
2023-04-27T00:02:02.904Z,1239.00
2023-04-27T00:03:03.096Z,1248.00
2023-04-27T00:04:03.056Z,1259.00
2023-04-27T00:05:03.126Z,1239.00
2023-04-27T00:06:02.960Z,1241.00
2023-04-27T00:07:02.981Z,1237.00
2023-04-27T00:08:03.000Z,1233.00
2023-04-27T00:09:03.046Z,1237.00
2023-04-27T00:10:03.048Z,1247.00
2023-04-27T00:11:03.080Z,1223.00
2023-04-27T00:12:03.163Z,1200.00
2023-04-27T00:13:03.132Z,1232.00
2023-04-27T00:14:03.116Z,1228.00
2023-04-27T00:15:03.133Z,1236.00
2023-04-27T00:16:03.292Z,1216.00
2023-04-27T00:17:03.172Z,1213.00
2023-04-27T00:18:03.300Z,1206.00
2023-04-27T00:19:03.246Z,1209.00
2023-04-27T00:20:03.257Z,1211.00
2023-04-27T00:21:03.279Z,1196.00
2023-04-27T00:22:03.314Z,1191.00
2023-04-27T00:23:03.334Z,1197.00
2023-04-27T00:24:03.389Z,1208.00
2023-04-27T00:25:03.387Z,1200.00
2023-04-27T00:26:03.409Z,1180.00
2023-04-27T00:27:03.456Z,1184.00
2023-04-27T00:28:03.449Z,1186.00
2023-04-27T00:29:03.534Z,1174.00
2023-04-27T00:30:03.506Z,1172.00
2023-04-27T00:31:03.641Z,1185.00
2023-04-27T00:32:03.629Z,1187.00
2023-04-27T00:33:03.650Z,1174.00
2023-04-27T00:34:03.621Z,1187.00
2023-04-27T00:35:03.621Z,1174.00
2023-04-27T00:36:03.674Z,1193.00
2023-04-27T00:37:03.651Z,1176.00
2023-04-27T00:38:03.708Z,1176.00
2023-04-27T00:39:03.710Z,1172.00
2023-04-27T00:40:03.754Z,1173.00
2023-04-27T00:41:03.788Z,1152.00
2023-04-27T00:42:03.819Z,1144.00
2023-04-27T00:43:03.860Z,1140.00
2023-04-27T00:44:03.907Z,1171.00
2023-04-27T00:45:03.938Z,1158.00
2023-04-27T00:46:04.012Z,1156.00
2023-04-27T00:47:04.061Z,1154.00
2023-04-27T00:48:04.154Z,1156.00
2023-04-27T00:49:04.132Z,1152.00
2023-04-27T00:50:04.125Z,1159.00
2023-04-27T00:51:04.175Z,1159.00
2023-04-27T00:52:04.207Z,1147.00
2023-04-27T00:53:04.261Z,1145.00
2023-04-27T00:54:04.310Z,1151.00
2023-04-27T00:55:04.393Z,1138.00
2023-04-27T00:56:04.410Z,1131.00
2023-04-27T00:57:04.444Z,1136.00
2023-04-27T00:58:04.494Z,1140.00
2023-04-27T00:59:04.549Z,1130.00
2023-04-27T01:00:04.598Z,1132.00
2023-04-27T01:01:04.667Z,1132.00
2023-04-27T01:02:04.685Z,1121.00
2023-04-27T01:03:04.862Z,1104.00
2023-04-27T01:04:05.029Z,1104.00
2023-04-27T01:05:04.809Z,1128.00
2023-04-27T01:06:04.938Z,1122.00
2023-04-27T01:07:04.888Z,1103.00
2023-04-27T01:08:04.929Z,1116.00
2023-04-27T01:09:04.991Z,1113.00
2023-04-27T01:10:05.054Z,1104.00
2023-04-27T01:11:05.094Z,1086.00
2023-04-27T01:12:05.116Z,1109.00
2023-04-27T01:13:05.148Z,1084.00
2023-04-27T01:14:05.165Z,1080.00
2023-04-27T01:15:05.245Z,1088.00
2023-04-27T01:16:05.263Z,1087.00
2023-04-27T01:17:05.362Z,1084.00
2023-04-27T01:18:05.408Z,1094.00
2023-04-27T01:19:05.451Z,1084.00
2023-04-27T01:20:05.479Z,1074.00
2023-04-27T01:21:05.509Z,1080.00
2023-04-27T01:22:05.551Z,1082.00
2023-04-27T01:23:05.576Z,1078.00
2023-04-27T01:24:05.630Z,1083.00
2023-04-27T01:25:05.684Z,1075.00
2023-04-27T01:26:05.696Z,1090.00
2023-04-27T01:27:05.744Z,1081.00
2023-04-27T01:28:05.827Z,1074.00
2023-04-27T01:29:05.823Z,1078.00
2023-04-27T01:30:05.882Z,1064.00
2023-04-27T01:31:05.915Z,1059.00
2023-04-27T01:32:05.957Z,1072.00
2023-04-27T01:33:06.009Z,1072.00
2023-04-27T01:34:06.016Z,1066.00
2023-04-27T01:35:06.051Z,1057.00
2023-04-27T01:36:06.087Z,1033.00
2023-04-27T01:37:06.164Z,1052.00
2023-04-27T01:38:06.175Z,1054.00
2023-04-27T01:39:06.194Z,1026.00
2023-04-27T01:40:06.273Z,1010.00
2023-04-27T01:41:06.278Z,999.00
2023-04-27T01:42:06.332Z,1036.00
2023-04-27T01:43:06.377Z,1042.00
2023-04-27T01:44:06.388Z,1028.00
2023-04-27T01:45:06.458Z,1028.00
2023-04-27T01:46:06.519Z,1025.00
2023-04-27T01:47:06.529Z,1035.00
2023-04-27T01:48:06.643Z,1022.00
2023-04-27T01:49:06.600Z,1016.00
2023-04-27T01:50:06.664Z,1027.00
2023-04-27T01:51:06.687Z,1036.00
2023-04-27T01:52:06.732Z,1033.00
2023-04-27T01:53:06.758Z,1017.00
2023-04-27T01:54:06.814Z,1019.00
2023-04-27T01:55:06.828Z,1013.00
2023-04-27T01:56:06.903Z,1007.00
2023-04-27T01:57:06.976Z,1021.00
2023-04-27T01:58:06.978Z,1005.00
2023-04-27T01:59:07.025Z,1011.00
2023-04-27T02:00:07.036Z,1010.00
2023-04-27T02:01:07.072Z,1012.00
2023-04-27T02:02:07.239Z,1021.00
2023-04-27T02:03:07.353Z,1024.00
2023-04-27T02:04:07.323Z,997.00
2023-04-27T02:05:07.218Z,1005.00
2023-04-27T02:06:07.284Z,1001.00
2023-04-27T02:07:07.292Z,980.00
2023-04-27T02:08:07.357Z,972.00
2023-04-27T02:09:07.406Z,976.00
2023-04-27T02:10:07.457Z,981.00
2023-04-27T02:11:07.470Z,979.00
2023-04-27T02:12:07.487Z,990.00
2023-04-27T02:13:07.602Z,996.00
2023-04-27T02:14:07.580Z,995.00
2023-04-27T02:15:07.637Z,996.00
2023-04-27T02:16:07.741Z,984.00
2023-04-27T02:17:07.691Z,981.00
2023-04-27T02:18:07.755Z,968.00
2023-04-27T02:19:07.789Z,968.00
2023-04-27T02:20:07.829Z,984.00
2023-04-27T02:21:07.847Z,976.00
2023-04-27T02:22:07.886Z,970.00
2023-04-27T02:23:07.920Z,967.00
2023-04-27T02:24:07.969Z,969.00
2023-04-27T02:25:07.998Z,971.00
2023-04-27T02:26:08.070Z,967.00
2023-04-27T02:27:08.116Z,980.00
2023-04-27T02:28:08.659Z,960.00
2023-04-27T02:29:08.203Z,956.00
2023-04-27T02:30:08.213Z,972.00
2023-04-27T02:31:08.395Z,948.00
2023-04-27T02:32:08.299Z,962.00
2023-04-27T02:33:08.461Z,963.00
2023-04-27T02:34:08.371Z,959.00
2023-04-27T02:35:08.416Z,954.00
2023-04-27T02:36:08.465Z,956.00
2023-04-27T02:37:08.478Z,957.00
2023-04-27T02:38:08.565Z,953.00
2023-04-27T02:39:08.605Z,941.00
2023-04-27T02:40:08.592Z,940.00
2023-04-27T02:41:08.658Z,936.00
2023-04-27T02:42:08.722Z,945.00
2023-04-27T02:43:08.755Z,948.00
2023-04-27T02:44:08.825Z,943.00
2023-04-27T02:45:08.845Z,949.00
2023-04-27T02:46:08.935Z,940.00
2023-04-27T02:47:08.992Z,947.00
2023-04-27T02:48:09.059Z,935.00
2023-04-27T02:49:09.038Z,929.00
2023-04-27T02:50:09.064Z,925.00
2023-04-27T02:51:09.125Z,929.00
2023-04-27T02:52:09.167Z,917.00
2023-04-27T02:53:09.206Z,925.00
2023-04-27T02:54:09.225Z,920.00
2023-04-27T02:55:09.289Z,901.00
2023-04-27T02:56:09.370Z,920.00
2023-04-27T02:57:09.364Z,918.00
2023-04-27T02:58:09.440Z,921.00
2023-04-27T02:59:09.492Z,924.00
2023-04-27T03:00:09.521Z,921.00
2023-04-27T03:01:09.606Z,903.00
2023-04-27T03:02:09.603Z,912.00
2023-04-27T03:03:09.745Z,917.00
2023-04-27T03:04:09.890Z,922.00
2023-04-27T03:05:09.726Z,909.00
2023-04-27T03:06:09.772Z,913.00
2023-04-27T03:07:09.788Z,905.00
2023-04-27T03:08:09.855Z,910.00
2023-04-27T03:09:09.935Z,904.00
2023-04-27T03:10:09.958Z,892.00
2023-04-27T03:11:09.955Z,893.00
2023-04-27T03:12:10.030Z,871.00
2023-04-27T03:13:10.029Z,883.00
2023-04-27T03:14:10.078Z,892.00
2023-04-27T03:15:10.117Z,882.00
2023-04-27T03:16:10.205Z,893.00
2023-04-27T03:17:10.206Z,893.00
2023-04-27T03:18:10.308Z,880.00
2023-04-27T03:19:10.258Z,866.00
2023-04-27T03:20:10.330Z,859.00
2023-04-27T03:21:10.329Z,872.00
2023-04-27T03:22:10.401Z,878.00
2023-04-27T03:23:10.444Z,870.00
2023-04-27T03:24:10.450Z,870.00
2023-04-27T03:25:10.511Z,871.00
2023-04-27T03:26:10.537Z,872.00
2023-04-27T03:27:10.564Z,875.00
2023-04-27T03:28:10.634Z,875.00
2023-04-27T03:29:10.689Z,876.00
2023-04-27T03:30:11.677Z,868.00
2023-04-27T03:31:10.759Z,855.00
2023-04-27T03:32:10.894Z,850.00
2023-04-27T03:33:11.185Z,864.00
2023-04-27T03:34:10.943Z,859.00
2023-04-27T03:35:10.955Z,846.00
2023-04-27T03:36:11.025Z,857.00
2023-04-27T03:37:11.071Z,857.00
2023-04-27T03:38:11.126Z,840.00
2023-04-27T03:39:11.367Z,840.00
2023-04-27T03:40:11.254Z,840.00
2023-04-27T03:41:11.280Z,846.00
2023-04-27T03:42:11.351Z,850.00
2023-04-27T03:43:11.387Z,837.00
2023-04-27T03:44:11.442Z,838.00
2023-04-27T03:45:11.499Z,830.00
2023-04-27T03:46:11.583Z,837.00
2023-04-27T03:47:11.579Z,845.00
2023-04-27T03:48:11.633Z,855.00
2023-04-27T03:49:11.763Z,837.00
2023-04-27T03:50:11.757Z,838.00
2023-04-27T03:51:11.799Z,836.00
2023-04-27T03:52:11.838Z,842.00
2023-04-27T03:53:11.914Z,837.00
2023-04-27T03:54:11.956Z,837.00
2023-04-27T03:55:11.967Z,833.00
2023-04-27T03:56:12.031Z,841.00
2023-04-27T03:57:12.115Z,838.00
2023-04-27T03:58:12.154Z,805.00
2023-04-27T03:59:12.404Z,837.00
2023-04-27T04:00:12.281Z,808.00
2023-04-27T04:01:12.350Z,811.00
2023-04-27T04:02:12.358Z,825.00
2023-04-27T04:03:12.604Z,817.00
2023-04-27T04:04:12.626Z,824.00
2023-04-27T04:05:12.701Z,826.00
2023-04-27T04:06:12.548Z,825.00
2023-04-27T04:07:12.606Z,825.00
2023-04-27T04:08:12.654Z,819.00
2023-04-27T04:09:13.129Z,802.00
2023-04-27T04:10:12.747Z,815.00
2023-04-27T04:11:12.787Z,819.00
2023-04-27T04:12:12.830Z,805.00
2023-04-27T04:13:12.890Z,817.00
2023-04-27T04:14:12.942Z,823.00
2023-04-27T04:15:12.986Z,812.00
2023-04-27T04:16:13.027Z,812.00
2023-04-27T04:17:13.084Z,816.00
2023-04-27T04:18:13.192Z,809.00
2023-04-27T04:19:13.681Z,819.00
2023-04-27T04:20:13.217Z,813.00
2023-04-27T04:21:13.299Z,801.00
2023-04-27T04:22:13.295Z,811.00
2023-04-27T04:23:13.385Z,805.00
2023-04-27T04:24:13.403Z,810.00
2023-04-27T04:25:13.516Z,804.00
2023-04-27T04:26:13.521Z,802.00
2023-04-27T04:27:13.586Z,804.00
2023-04-27T04:28:13.631Z,806.00
2023-04-27T04:29:13.892Z,803.00
2023-04-27T04:30:13.681Z,792.00
2023-04-27T04:31:13.818Z,792.00
2023-04-27T04:32:13.824Z,802.00
2023-04-27T04:33:13.861Z,796.00
2023-04-27T04:34:13.985Z,800.00
2023-04-27T04:35:13.923Z,806.00
2023-04-27T04:36:14.003Z,789.00
2023-04-27T04:37:14.031Z,789.00
2023-04-27T04:38:14.165Z,780.00
2023-04-27T04:39:14.306Z,784.00
2023-04-27T04:40:14.208Z,779.00
2023-04-27T04:41:14.263Z,779.00
2023-04-27T04:42:14.278Z,790.00
2023-04-27T04:43:14.361Z,785.00
2023-04-27T04:44:14.390Z,775.00
2023-04-27T04:45:14.420Z,779.00
2023-04-27T04:46:14.504Z,784.00
2023-04-27T04:47:14.548Z,787.00
2023-04-27T04:48:14.600Z,792.00
2023-04-27T04:49:14.788Z,785.00
2023-04-27T04:50:14.750Z,741.00
2023-04-27T04:51:14.715Z,709.00
2023-04-27T04:52:14.778Z,670.00
2023-04-27T04:53:14.827Z,652.00
2023-04-27T04:54:14.835Z,650.00
2023-04-27T04:55:14.907Z,650.00
2023-04-27T04:56:14.951Z,654.00
2023-04-27T04:57:15.000Z,661.00
2023-04-27T04:58:15.077Z,673.00
2023-04-27T04:59:15.200Z,676.00
2023-04-27T05:00:15.147Z,691.00
2023-04-27T05:01:15.277Z,714.00
2023-04-27T05:02:15.265Z,740.00
2023-04-27T05:03:15.444Z,746.00
2023-04-27T05:04:15.593Z,762.00
2023-04-27T05:05:15.408Z,776.00
2023-04-27T05:06:15.449Z,797.00
2023-04-27T05:07:17.495Z,812.00
2023-04-27T05:08:15.520Z,813.00
2023-04-27T05:09:15.546Z,817.00
2023-04-27T05:10:15.490Z,822.00
2023-04-27T05:11:15.485Z,827.00
2023-04-27T05:12:15.457Z,847.00
2023-04-27T05:13:15.469Z,854.00
2023-04-27T05:14:15.447Z,864.00
2023-04-27T05:15:15.462Z,877.00
2023-04-27T05:16:15.565Z,898.00
2023-04-27T05:17:15.438Z,916.00
2023-04-27T05:18:15.463Z,934.00
2023-04-27T05:19:15.648Z,962.00
2023-04-27T05:20:16.073Z,969.00
2023-04-27T05:21:15.386Z,977.00
2023-04-27T05:22:15.421Z,997.00
2023-04-27T05:23:15.387Z,1020.00
2023-04-27T05:24:15.390Z,1037.00
2023-04-27T05:25:15.391Z,1056.00
2023-04-27T05:26:15.361Z,1061.00
2023-04-27T05:27:15.346Z,1081.00
2023-04-27T05:28:15.379Z,1093.00
2023-04-27T05:29:15.815Z,1112.00
2023-04-27T05:30:15.336Z,1115.00
2023-04-27T05:31:15.424Z,1128.00
2023-04-27T05:32:15.327Z,1129.00
2023-04-27T05:33:15.362Z,1155.00
2023-04-27T05:34:15.407Z,1167.00
2023-04-27T05:35:15.477Z,1189.00
2023-04-27T05:36:15.530Z,1206.00
2023-04-27T05:37:15.542Z,1207.00
2023-04-27T05:38:15.607Z,1227.00
2023-04-27T05:39:15.936Z,1248.00
2023-04-27T05:40:15.663Z,1267.00
2023-04-27T05:41:15.705Z,1275.00
2023-04-27T05:42:15.782Z,1262.00
2023-04-27T05:43:15.816Z,1273.00
2023-04-27T05:44:15.873Z,1294.00
2023-04-27T05:45:15.914Z,1296.00
2023-04-27T05:46:16.009Z,1294.00
2023-04-27T05:47:15.964Z,1310.00
2023-04-27T05:48:16.031Z,1333.00
2023-04-27T05:49:16.131Z,1337.00
2023-04-27T05:50:16.098Z,1348.00
2023-04-27T05:51:16.131Z,1369.00
2023-04-27T05:52:16.170Z,1401.00
2023-04-27T05:53:16.239Z,1416.00
2023-04-27T05:54:16.247Z,1431.00
2023-04-27T05:55:16.303Z,1450.00
2023-04-27T05:56:16.335Z,1455.00
2023-04-27T05:57:16.372Z,1478.00
2023-04-27T05:58:16.407Z,1504.00
2023-04-27T05:59:16.665Z,1509.00
2023-04-27T06:00:16.477Z,1530.00
2023-04-27T06:01:16.500Z,1540.00
2023-04-27T06:02:16.687Z,1547.00
2023-04-27T06:03:16.717Z,1550.00
2023-04-27T06:04:16.847Z,1567.00
2023-04-27T06:05:16.717Z,1573.00
2023-04-27T06:06:16.682Z,1579.00
2023-04-27T06:07:16.729Z,1605.00
2023-04-27T06:08:16.756Z,1610.00
2023-04-27T06:09:16.842Z,1622.00
2023-04-27T06:10:16.845Z,1636.00
2023-04-27T06:11:16.889Z,1653.00
2023-04-27T06:12:16.882Z,1670.00
2023-04-27T06:13:16.947Z,1687.00
2023-04-27T06:14:16.968Z,1684.00
2023-04-27T06:15:16.996Z,1686.00
2023-04-27T06:16:17.072Z,1708.00
2023-04-27T06:17:17.041Z,1719.00
2023-04-27T06:18:17.150Z,1731.00
2023-04-27T06:19:17.115Z,1741.00
2023-04-27T06:20:17.145Z,1733.00
2023-04-27T06:21:17.177Z,1731.00
2023-04-27T06:22:17.216Z,1749.00
2023-04-27T06:23:17.237Z,1756.00
2023-04-27T06:24:17.255Z,1752.00
2023-04-27T06:25:17.365Z,1769.00
2023-04-27T06:26:17.319Z,1769.00
2023-04-27T06:27:17.342Z,1772.00
2023-04-27T06:28:17.369Z,1783.00
2023-04-27T06:29:17.381Z,1768.00
2023-04-27T06:30:17.410Z,1781.00
2023-04-27T06:31:17.485Z,1796.00
2023-04-27T06:32:17.470Z,1810.00
2023-04-27T06:33:17.510Z,1808.00
2023-04-27T06:34:17.518Z,1832.00
2023-04-27T06:35:17.529Z,1841.00
2023-04-27T06:36:17.548Z,1847.00
2023-04-27T06:37:17.577Z,1843.00
2023-04-27T06:38:17.598Z,1847.00
2023-04-27T06:39:17.675Z,1864.00
2023-04-27T06:40:17.643Z,1873.00
2023-04-27T06:41:17.713Z,1865.00
2023-04-27T06:42:17.707Z,1870.00
2023-04-27T06:43:17.724Z,1870.00
2023-04-27T06:44:17.766Z,1878.00
2023-04-27T06:45:17.780Z,1874.00
2023-04-27T06:46:17.896Z,1880.00
2023-04-27T06:47:17.807Z,1905.00
2023-04-27T06:48:17.983Z,1923.00
2023-04-27T06:49:17.861Z,1937.00
2023-04-27T06:50:17.837Z,1953.00
2023-04-27T06:51:17.885Z,1971.00
2023-04-27T06:52:17.925Z,1994.00
2023-04-27T06:53:18.246Z,2036.00
2023-04-27T06:54:17.908Z,2028.00
2023-04-27T06:55:17.961Z,2022.00
2023-04-27T06:56:17.957Z,2023.00
2023-04-27T06:57:17.933Z,2039.00
2023-04-27T06:58:17.917Z,2035.00
2023-04-27T06:59:18.299Z,2046.00
2023-04-27T07:00:17.957Z,2048.00
2023-04-27T07:01:17.957Z,2052.00
2023-04-27T07:02:17.955Z,2043.00
2023-04-27T07:03:18.092Z,2013.00
2023-04-27T07:04:18.061Z,1994.00
2023-04-27T07:05:17.926Z,2001.00
2023-04-27T07:06:17.954Z,2010.00
2023-04-27T07:07:17.933Z,1992.00
2023-04-27T07:08:17.945Z,1984.00
2023-04-27T07:09:27.025Z,1968.00
2023-04-27T07:10:18.934Z,1969.00
2023-04-27T07:11:17.883Z,1972.00
2023-04-27T07:12:17.878Z,1977.00
2023-04-27T07:13:17.890Z,1993.00
2023-04-27T07:14:17.891Z,1973.00
2023-04-27T07:15:17.876Z,1928.00
2023-04-27T07:16:17.887Z,1970.00
2023-04-27T07:17:18.094Z,1956.00
2023-04-27T07:18:18.254Z,1945.00
2023-04-27T07:19:17.870Z,1922.00
2023-04-27T07:20:17.850Z,1947.00
2023-04-27T07:21:17.846Z,1957.00
2023-04-27T07:22:17.830Z,1961.00
2023-04-27T07:23:17.856Z,1977.00
2023-04-27T07:24:17.827Z,1930.00
2023-04-27T07:25:17.830Z,1889.00
2023-04-27T07:26:17.811Z,1925.00
2023-04-27T07:27:17.811Z,1922.00
2023-04-27T07:28:17.782Z,1921.00
2023-04-27T07:30:17.902Z,1972.00
2023-04-27T07:31:17.846Z,1979.00
2023-04-27T07:32:17.826Z,1926.00
2023-04-27T07:33:18.281Z,1954.00
2023-04-27T07:34:17.728Z,1987.00
2023-04-27T07:35:17.736Z,1966.00
2023-04-27T07:36:17.719Z,1988.00
2023-04-27T07:37:17.727Z,1969.00
2023-04-27T07:38:17.706Z,1960.00
2023-04-27T07:39:17.714Z,1991.00
2023-04-27T07:40:17.739Z,2043.00
2023-04-27T07:41:17.688Z,2045.00
2023-04-27T07:42:17.701Z,2047.00
2023-04-27T07:43:17.782Z,2043.00
2023-04-27T07:44:17.673Z,2050.00
2023-04-27T07:45:17.696Z,1913.00
2023-04-27T07:46:17.842Z,1823.00
2023-04-27T07:47:17.666Z,1803.00
2023-04-27T07:48:17.670Z,1779.00
2023-04-27T07:49:17.659Z,1739.00
2023-04-27T07:50:17.648Z,1660.00
2023-04-27T07:51:17.655Z,1637.00
2023-04-27T07:52:17.613Z,1649.00
2023-04-27T07:53:17.640Z,1538.00
2023-04-27T07:54:17.640Z,1486.00
2023-04-27T07:55:17.598Z,1400.00
2023-04-27T07:56:17.575Z,1357.00
2023-04-27T07:57:17.593Z,1345.00
2023-04-27T07:58:17.623Z,1378.00
2023-04-27T07:59:17.600Z,1241.00
2023-04-27T08:00:17.568Z,1206.00
2023-04-27T08:01:19.518Z,1248.00
2023-04-27T08:02:20.124Z,1203.00
2023-04-27T08:03:17.679Z,1154.00
2023-04-27T08:04:17.909Z,1148.00
2023-04-27T08:05:17.749Z,1102.00
2023-04-27T08:06:18.033Z,1133.00
2023-04-27T08:07:17.824Z,1120.00
2023-04-27T08:08:18.038Z,1091.00
2023-04-27T08:09:17.485Z,1082.00
2023-04-27T08:10:17.490Z,1119.00
2023-04-27T08:11:17.496Z,1109.00
2023-04-27T08:12:17.466Z,1030.00
2023-04-27T08:13:17.478Z,1042.00
2023-04-27T08:14:17.506Z,1011.00
2023-04-27T08:15:17.471Z,1071.00
2023-04-27T08:16:17.496Z,1146.00
2023-04-27T08:17:17.489Z,1153.00
2023-04-27T08:18:17.545Z,1068.00
2023-04-27T08:19:17.451Z,1122.00
2023-04-27T08:20:17.431Z,1185.00
2023-04-27T08:21:17.451Z,1131.00
2023-04-27T08:22:17.407Z,1111.00
2023-04-27T08:23:17.422Z,1119.00
2023-04-27T08:24:17.780Z,1150.00
2023-04-27T08:25:17.424Z,1132.00
2023-04-27T08:26:17.397Z,1175.00
2023-04-27T08:27:17.378Z,1190.00
2023-04-27T08:28:17.404Z,1113.00
2023-04-27T08:29:27.304Z,1165.00
2023-04-27T08:30:18.394Z,1165.00
2023-04-27T08:31:17.404Z,1174.00
2023-04-27T08:32:17.339Z,1109.00
2023-04-27T08:33:17.360Z,1069.00
2023-04-27T08:34:17.803Z,1033.00
2023-04-27T08:35:17.351Z,1049.00
2023-04-27T08:36:17.337Z,1009.00
2023-04-27T08:37:17.351Z,1093.00
2023-04-27T08:38:17.346Z,1084.00
2023-04-27T08:39:17.361Z,1035.00
2023-04-27T08:40:17.348Z,1002.00
2023-04-27T08:41:21.951Z,949.00
2023-04-27T08:42:17.383Z,950.00
2023-04-27T08:43:17.346Z,954.00
2023-04-27T08:44:17.356Z,961.00
2023-04-27T08:45:17.372Z,983.00
2023-04-27T08:46:17.355Z,971.00
2023-04-27T08:47:18.936Z,1003.00
2023-04-27T08:48:18.360Z,1007.00
2023-04-27T08:49:17.976Z,1017.00
2023-04-27T08:50:17.304Z,1053.00
2023-04-27T08:51:17.331Z,1175.00
2023-04-27T08:52:17.338Z,1302.00
2023-04-27T08:53:17.271Z,1392.00
2023-04-27T08:54:17.295Z,1438.00
2023-04-27T08:55:17.269Z,1477.00
2023-04-27T08:56:17.280Z,1532.00
2023-04-27T08:57:17.254Z,1556.00
2023-04-27T08:58:17.268Z,1577.00
2023-04-27T08:59:17.547Z,1613.00
2023-04-27T09:00:17.240Z,1622.00
2023-04-27T09:01:17.307Z,1629.00
2023-04-27T09:02:17.316Z,1649.00
2023-04-27T09:03:17.337Z,1680.00
2023-04-27T09:04:17.615Z,1703.00
2023-04-27T09:05:17.248Z,1707.00
2023-04-27T09:06:17.253Z,1716.00
2023-04-27T09:07:17.195Z,1719.00
2023-04-27T09:08:17.157Z,1701.00
2023-04-27T09:09:17.188Z,1725.00
2023-04-27T09:10:17.182Z,1622.00
2023-04-27T09:11:17.155Z,1548.00
2023-04-27T09:12:17.137Z,1596.00
2023-04-27T09:13:17.157Z,1584.00
2023-04-27T09:14:17.133Z,1587.00
2023-04-27T09:15:17.139Z,1590.00
2023-04-27T09:16:17.203Z,1539.00
2023-04-27T09:17:17.135Z,1560.00
2023-04-27T09:18:17.113Z,1552.00
2023-04-27T09:19:17.173Z,1601.00
2023-04-27T09:20:17.190Z,1609.00
2023-04-27T09:21:17.240Z,1563.00
2023-04-27T09:22:17.311Z,1565.00
2023-04-27T09:23:17.257Z,1523.00
2023-04-27T09:24:17.271Z,1723.00
2023-04-27T09:25:17.276Z,1587.00
2023-04-27T09:26:17.261Z,1502.00
2023-04-27T09:27:17.269Z,1323.00
2023-04-27T09:28:17.267Z,1096.00
2023-04-27T09:29:17.268Z,1140.00
2023-04-27T09:30:17.272Z,1254.00
2023-04-27T09:31:17.335Z,1332.00
2023-04-27T09:32:17.946Z,1351.00
2023-04-27T09:33:17.281Z,1400.00
2023-04-27T09:34:17.338Z,1436.00
2023-04-27T09:35:17.365Z,1497.00
2023-04-27T09:36:17.418Z,1489.00
2023-04-27T09:37:17.454Z,1548.00
2023-04-27T09:38:17.517Z,1580.00
2023-04-27T09:39:17.796Z,1623.00
2023-04-27T09:40:17.649Z,1643.00
2023-04-27T09:41:17.735Z,1733.00
2023-04-27T09:42:17.759Z,1774.00
2023-04-27T09:43:17.868Z,1791.00
2023-04-27T09:44:18.329Z,1821.00
2023-04-27T09:45:17.948Z,1810.00
2023-04-27T09:46:18.168Z,1741.00
2023-04-27T09:47:18.050Z,1630.00
2023-04-27T09:48:18.126Z,1677.00
2023-04-27T09:49:18.207Z,1706.00
2023-04-27T09:50:18.246Z,1736.00
2023-04-27T09:51:18.317Z,1738.00
2023-04-27T09:52:18.336Z,1763.00
2023-04-27T09:53:18.410Z,1781.00
2023-04-27T09:54:18.423Z,1772.00
2023-04-27T09:55:18.456Z,1774.00
2023-04-27T09:56:18.537Z,1786.00
2023-04-27T09:57:18.562Z,1778.00
2023-04-27T09:58:18.601Z,1796.00
2023-04-27T09:59:18.601Z,1775.00
2023-04-27T10:00:18.696Z,1744.00
2023-04-27T10:01:18.728Z,1747.00
2023-04-27T10:03:18.778Z,1736.00
2023-04-27T10:04:18.833Z,1737.00
2023-04-27T10:05:18.830Z,1738.00
2023-04-27T10:06:18.732Z,1738.00
2023-04-27T10:07:18.694Z,1744.00
2023-04-27T10:08:18.685Z,1754.00
2023-04-27T10:09:18.681Z,1753.00
2023-04-27T10:10:18.930Z,1753.00
2023-04-27T10:11:18.660Z,1747.00
2023-04-27T10:12:18.664Z,1752.00
2023-04-27T10:13:18.653Z,1728.00
2023-04-27T10:14:18.647Z,1720.00
2023-04-27T10:15:18.649Z,1819.00
2023-04-27T10:16:18.636Z,1808.00
2023-04-27T10:17:18.667Z,1846.00
2023-04-27T10:18:18.626Z,1798.00
2023-04-27T10:19:18.602Z,1774.00
2023-04-27T10:20:18.615Z,1801.00
2023-04-27T10:21:18.612Z,1768.00
2023-04-27T10:22:18.600Z,1790.00
2023-04-27T10:23:18.615Z,1802.00
2023-04-27T10:24:18.602Z,1803.00
2023-04-27T10:25:18.567Z,1801.00
2023-04-27T10:26:18.567Z,1754.00
2023-04-27T10:27:18.588Z,1764.00
2023-04-27T10:28:18.580Z,1738.00
2023-04-27T10:29:18.547Z,1747.00
2023-04-27T10:30:18.587Z,1769.00
2023-04-27T10:31:18.607Z,1738.00
2023-04-27T10:32:18.579Z,1764.00
2023-04-27T10:33:18.550Z,1745.00
2023-04-27T10:34:20.689Z,1726.00
2023-04-27T10:35:18.509Z,1794.00
2023-04-27T10:36:18.517Z,1777.00
2023-04-27T10:37:18.543Z,1486.00
2023-04-27T10:38:18.506Z,1509.00
2023-04-27T10:39:18.516Z,1505.00
2023-04-27T10:40:18.491Z,1576.00
2023-04-27T10:41:18.496Z,1634.00
2023-04-27T10:42:18.464Z,1720.00
2023-04-27T10:43:19.348Z,1767.00
2023-04-27T10:44:18.481Z,1812.00
2023-04-27T10:45:18.466Z,1810.00
2023-04-27T10:46:18.473Z,1816.00
2023-04-27T10:47:18.444Z,1818.00
2023-04-27T10:48:18.430Z,1838.00
2023-04-27T10:49:18.411Z,1850.00
2023-04-27T10:50:18.433Z,1870.00
2023-04-27T10:51:18.756Z,1873.00
2023-04-27T10:52:18.390Z,1869.00
2023-04-27T10:53:18.403Z,1881.00
2023-04-27T10:54:18.418Z,1893.00
2023-04-27T10:55:18.435Z,1859.00
2023-04-27T10:56:18.403Z,1911.00
2023-04-27T10:57:18.367Z,1875.00
2023-04-27T10:58:18.388Z,1873.00
2023-04-27T10:59:18.386Z,1846.00
2023-04-27T11:00:18.344Z,1850.00
2023-04-27T11:01:18.389Z,1915.00
2023-04-27T11:02:18.415Z,1900.00
2023-04-27T11:03:18.487Z,1813.00
2023-04-27T11:04:18.365Z,1789.00
2023-04-27T11:05:18.353Z,1837.00
2023-04-27T11:06:18.308Z,1828.00
2023-04-27T11:07:18.345Z,1850.00
2023-04-27T11:08:18.297Z,1879.00
2023-04-27T11:09:18.301Z,1894.00
2023-04-27T11:10:18.257Z,1878.00
2023-04-27T11:11:18.318Z,1935.00
2023-04-27T11:12:18.303Z,1927.00
2023-04-27T11:13:18.290Z,1915.00
2023-04-27T11:14:18.242Z,1863.00
2023-04-27T11:15:18.272Z,1878.00
2023-04-27T11:16:18.378Z,1939.00
2023-04-27T11:17:18.245Z,1910.00
2023-04-27T11:18:18.198Z,1907.00
2023-04-27T11:19:18.220Z,1949.00
2023-04-27T11:20:18.209Z,2011.00
2023-04-27T11:21:18.200Z,2043.00
2023-04-27T11:22:18.238Z,2026.00
2023-04-27T11:23:18.174Z,1990.00
2023-04-27T11:24:18.177Z,1999.00
2023-04-27T11:25:18.165Z,2019.00
2023-04-27T11:26:18.182Z,2003.00
2023-04-27T11:27:18.164Z,2030.00
2023-04-27T11:28:18.155Z,2032.00
2023-04-27T11:29:18.380Z,2068.00
2023-04-27T11:30:18.127Z,2046.00
2023-04-27T11:31:18.155Z,2062.00
2023-04-27T11:32:18.130Z,2030.00
2023-04-27T11:33:18.139Z,2015.00
2023-04-27T11:34:19.555Z,1993.00
2023-04-27T11:35:18.254Z,2009.00
2023-04-27T11:36:18.277Z,1979.00
2023-04-27T11:37:18.811Z,1966.00
2023-04-27T11:38:18.273Z,1971.00
2023-04-27T11:39:18.358Z,1991.00
2023-04-27T11:40:18.261Z,1994.00
2023-04-27T11:41:18.254Z,1983.00
2023-04-27T11:42:18.307Z,1967.00
2023-04-27T11:43:18.282Z,1973.00
2023-04-27T11:44:19.857Z,1961.00
2023-04-27T11:45:18.317Z,1941.00
2023-04-27T11:46:18.337Z,1953.00
2023-04-27T11:47:19.000Z,1925.00
2023-04-27T11:48:18.351Z,1817.00
2023-04-27T11:49:18.369Z,1792.00
2023-04-27T11:50:18.354Z,1714.00
2023-04-27T11:51:18.392Z,1687.00
2023-04-27T11:52:18.388Z,1687.00
2023-04-27T11:53:19.105Z,1646.00
2023-04-27T11:54:18.449Z,1664.00
2023-04-27T11:55:18.516Z,1650.00
2023-04-27T11:56:18.512Z,1611.00
2023-04-27T11:57:18.532Z,1531.00
2023-04-27T11:58:18.575Z,1485.00
2023-04-27T11:59:18.589Z,1484.00
2023-04-27T12:00:18.644Z,1319.00
2023-04-27T12:01:27.815Z,1252.00
2023-04-27T12:02:19.855Z,1084.00
2023-04-27T12:03:18.892Z,823.00
2023-04-27T12:04:19.030Z,707.00
2023-04-27T12:05:18.905Z,779.00
2023-04-27T12:06:32.165Z,1009.00
2023-04-27T12:07:19.640Z,995.00
2023-04-27T12:08:18.650Z,1094.00
2023-04-27T12:09:18.627Z,1018.00
2023-04-27T12:10:18.638Z,1162.00
2023-04-27T12:11:18.613Z,1257.00
2023-04-27T12:12:18.596Z,1303.00
2023-04-27T12:13:18.591Z,1317.00
2023-04-27T12:14:18.579Z,1390.00